createdAt,value
2022-10-08T00:02:19.013Z,12.40
2022-10-08T00:06:30.039Z,12.40
2022-10-08T00:10:33.106Z,12.40
2022-10-08T00:14:34.993Z,12.40
2022-10-08T00:18:36.905Z,12.40
2022-10-08T00:22:41.657Z,12.30
2022-10-08T00:26:44.450Z,12.30
2022-10-08T00:30:46.538Z,12.40
2022-10-08T00:34:48.495Z,12.40
2022-10-08T00:38:58.772Z,12.50
2022-10-08T00:43:00.844Z,12.50
2022-10-08T00:47:02.752Z,12.50
2022-10-08T00:51:07.615Z,12.40
2022-10-08T00:55:10.144Z,12.40
2022-10-08T00:59:20.382Z,12.40
2022-10-08T01:03:22.484Z,12.50
2022-10-08T01:07:57.327Z,12.60
2022-10-08T01:12:05.241Z,12.60
2022-10-08T01:16:47.720Z,12.60
2022-10-08T01:21:23.191Z,12.60
2022-10-08T01:25:37.814Z,12.60
2022-10-08T01:29:42.042Z,12.70
2022-10-08T01:34:04.705Z,12.80
2022-10-08T01:38:07.515Z,12.90
2022-10-08T01:42:11.803Z,13.00
2022-10-08T01:46:23.354Z,13.00
2022-10-08T01:50:35.206Z,13.00
2022-10-08T01:54:38.109Z,13.10
2022-10-08T01:59:16.774Z,13.20
2022-10-08T02:03:24.907Z,13.20
2022-10-08T02:07:38.356Z,13.20
2022-10-08T02:11:46.882Z,13.40
2022-10-08T02:16:14.901Z,13.40
2022-10-08T02:20:58.854Z,13.40
2022-10-08T02:25:33.918Z,13.30
2022-10-08T02:30:02.914Z,13.30
2022-10-08T02:34:24.328Z,13.30
2022-10-08T02:38:57.593Z,13.30
2022-10-08T02:43:03.033Z,13.30
2022-10-08T02:47:06.861Z,13.30
2022-10-08T02:51:12.656Z,13.50
2022-10-08T02:55:36.847Z,13.50
2022-10-08T02:59:38.778Z,13.50
2022-10-08T03:03:46.040Z,13.50
2022-10-08T03:07:48.543Z,13.60
2022-10-08T03:11:50.754Z,13.50
2022-10-08T03:15:53.814Z,13.60
2022-10-08T03:19:55.676Z,13.60
2022-10-08T03:23:57.570Z,13.70
2022-10-08T03:27:59.484Z,13.70
2022-10-08T03:32:01.629Z,13.80
2022-10-08T03:36:03.891Z,13.70
2022-10-08T03:40:06.668Z,13.70
2022-10-08T03:44:09.635Z,13.80
2022-10-08T03:48:11.522Z,13.80
2022-10-08T03:52:13.421Z,13.80
2022-10-08T03:56:21.660Z,13.90
2022-10-08T04:00:23.516Z,13.90
2022-10-08T04:04:25.821Z,13.90
2022-10-08T04:08:27.969Z,14.00
2022-10-08T04:12:30.244Z,14.00
2022-10-08T04:16:32.155Z,14.00
2022-10-08T04:20:34.304Z,14.00
2022-10-08T04:24:36.349Z,13.90
2022-10-08T04:28:39.373Z,13.90
2022-10-08T04:32:41.547Z,13.90
2022-10-08T04:36:43.446Z,13.80
2022-10-08T04:40:45.304Z,13.80
2022-10-08T04:44:47.159Z,13.90
2022-10-08T04:48:51.743Z,13.90
2022-10-08T04:52:53.660Z,13.90
2022-10-08T04:56:55.543Z,13.80
2022-10-08T05:00:57.378Z,13.90
2022-10-08T05:04:59.444Z,13.90
2022-10-08T05:09:03.430Z,14.00
2022-10-08T05:13:05.444Z,13.90
2022-10-08T05:17:07.633Z,13.90
2022-10-08T05:21:14.907Z,13.90
2022-10-08T05:25:16.965Z,13.90
2022-10-08T05:29:19.432Z,13.90
2022-10-08T05:33:21.304Z,13.90
2022-10-08T05:37:23.414Z,13.90
2022-10-08T05:41:27.792Z,13.90
2022-10-08T05:45:30.087Z,13.90
2022-10-08T05:49:35.215Z,14.00
2022-10-08T05:53:38.967Z,14.00
2022-10-08T05:57:40.907Z,14.10
2022-10-08T06:01:42.862Z,14.10
2022-10-08T06:05:56.992Z,14.10
2022-10-08T06:10:01.942Z,14.10
2022-10-08T06:18:41.502Z,14.10
2022-10-08T06:23:32.962Z,14.20
2022-10-08T06:28:16.588Z,14.20
2022-10-08T06:43:07.644Z,14.50
2022-10-08T06:47:25.536Z,14.70
2022-10-08T06:51:29.441Z,14.70
2022-10-08T06:55:34.655Z,14.70
2022-10-08T06:59:36.532Z,14.90
2022-10-08T07:03:38.520Z,15.00
2022-10-08T07:07:41.634Z,15.10
2022-10-08T07:12:03.338Z,15.30
2022-10-08T07:16:21.360Z,15.40
2022-10-08T07:20:23.604Z,15.60
2022-10-08T07:24:26.991Z,15.70
2022-10-08T07:28:32.794Z,15.80
2022-10-08T07:33:21.958Z,16.10
2022-10-08T07:38:03.750Z,16.40
2022-10-08T07:42:20.283Z,16.80
2022-10-08T07:46:30.080Z,17.10
2022-10-08T07:56:12.483Z,17.40
2022-10-08T08:00:21.572Z,17.60
2022-10-08T08:04:26.295Z,17.60
2022-10-08T08:08:34.471Z,17.70
2022-10-08T08:14:10.882Z,17.90
2022-10-08T08:18:18.463Z,18.10
2022-10-08T08:22:25.967Z,18.20
2022-10-08T08:26:32.877Z,18.30
2022-10-08T08:30:34.930Z,18.80
2022-10-08T08:39:50.172Z,19.60
2022-10-08T08:44:24.991Z,19.60
2022-10-08T08:49:12.485Z,19.40
2022-10-08T08:53:32.694Z,19.30
2022-10-08T08:57:57.593Z,19.00
2022-10-08T09:02:03.917Z,19.00
2022-10-08T09:06:11.115Z,19.00
2022-10-08T09:10:29.286Z,19.40
2022-10-08T09:14:56.044Z,19.60
2022-10-08T09:18:58.054Z,19.80
2022-10-08T09:23:02.782Z,19.90
2022-10-08T09:27:13.617Z,19.70
2022-10-08T09:31:37.977Z,19.50
2022-10-08T09:36:58.832Z,19.50
2022-10-08T09:41:32.793Z,19.50
2022-10-08T09:46:30.215Z,19.40
2022-10-08T09:50:53.866Z,19.70
2022-10-08T10:00:14.329Z,19.70
2022-10-08T10:09:24.776Z,19.20
2022-10-08T10:14:27.248Z,19.30
2022-10-08T10:25:26.228Z,19.10
2022-10-08T10:35:46.592Z,18.60
2022-10-08T10:40:31.249Z,18.70
2022-10-08T10:44:59.544Z,18.90
2022-10-08T10:49:17.599Z,18.90
2022-10-08T10:54:04.682Z,19.00
2022-10-08T10:58:19.584Z,19.10
2022-10-08T11:02:46.448Z,19.20
2022-10-08T11:08:02.139Z,19.20
2022-10-08T11:12:30.055Z,19.10
2022-10-08T11:17:00.089Z,19.20
2022-10-08T11:21:25.103Z,19.30
2022-10-08T11:26:22.928Z,19.40
2022-10-08T11:30:30.902Z,19.70
2022-10-08T11:34:35.308Z,19.70
2022-10-08T11:39:27.270Z,19.70
2022-10-08T11:43:41.203Z,19.60
2022-10-08T11:47:42.952Z,19.50
2022-10-08T11:52:18.573Z,19.40
2022-10-08T11:56:20.595Z,19.20
2022-10-08T12:00:34.533Z,19.10
2022-10-08T12:04:38.396Z,19.20
2022-10-08T12:08:57.127Z,19.10
2022-10-08T12:13:02.729Z,19.20
2022-10-08T12:17:08.635Z,19.20
2022-10-08T12:21:16.861Z,19.00
2022-10-08T12:25:36.877Z,18.90
2022-10-08T12:30:06.683Z,18.90
2022-10-08T12:34:18.994Z,19.10
2022-10-08T12:38:42.811Z,19.40
2022-10-08T12:42:44.601Z,19.30
2022-10-08T12:47:24.091Z,19.50
2022-10-08T12:52:14.032Z,19.60
2022-10-08T12:56:28.780Z,19.60
2022-10-08T13:00:41.371Z,19.50
2022-10-08T13:04:54.624Z,19.50
2022-10-08T13:08:57.201Z,19.50
2022-10-08T13:13:15.007Z,19.30
2022-10-08T13:17:32.041Z,19.50
2022-10-08T13:21:38.183Z,19.90
2022-10-08T13:25:59.410Z,20.00
2022-10-08T13:30:33.358Z,19.70
2022-10-08T13:34:38.319Z,19.60
2022-10-08T13:38:41.491Z,19.40
2022-10-08T13:42:51.658Z,19.40
2022-10-08T13:46:54.515Z,19.20
2022-10-08T13:50:57.617Z,19.10
2022-10-08T13:55:06.655Z,19.10
2022-10-08T13:59:10.780Z,18.80
2022-10-08T14:03:19.047Z,18.70
2022-10-08T14:07:34.311Z,18.70
2022-10-08T14:11:37.575Z,18.60
2022-10-08T14:20:01.936Z,18.30
2022-10-08T14:25:18.456Z,18.10
2022-10-08T14:30:24.180Z,18.10
2022-10-08T14:34:29.489Z,17.90
2022-10-08T14:40:00.690Z,17.70
2022-10-08T15:00:13.770Z,17.40
2022-10-08T15:04:25.529Z,17.20
2022-10-08T15:08:28.217Z,17.10
2022-10-08T15:30:44.201Z,16.50
2022-10-08T15:34:46.107Z,16.30
2022-10-08T15:38:52.871Z,16.10
2022-10-08T15:42:57.754Z,16.10
2022-10-08T15:53:19.513Z,15.90
2022-10-08T15:57:39.973Z,15.80
2022-10-08T16:01:46.997Z,15.80
2022-10-08T16:05:59.144Z,15.80
2022-10-08T16:10:09.034Z,15.80
2022-10-08T16:14:19.375Z,15.80
2022-10-08T16:18:32.203Z,15.80
2022-10-08T16:22:36.822Z,15.80
2022-10-08T16:26:39.930Z,15.70
2022-10-08T16:30:50.944Z,15.70
2022-10-08T16:35:42.666Z,15.60
2022-10-08T16:40:31.962Z,15.40
2022-10-08T16:44:49.942Z,15.30
2022-10-08T18:04:43.953Z,13.30
2022-10-08T18:09:04.290Z,13.20
2022-10-08T18:13:30.440Z,13.10
2022-10-08T18:17:33.289Z,13.10
2022-10-08T18:27:27.154Z,13.10
2022-10-08T18:32:50.527Z,13.10
2022-10-08T18:36:46.902Z,13.20
2022-10-08T18:45:27.471Z,13.30
2022-10-08T18:49:30.890Z,13.30
2022-10-08T18:53:42.054Z,13.30
2022-10-08T18:57:50.221Z,13.30
2022-10-08T19:01:59.286Z,13.30
2022-10-08T19:06:02.083Z,13.20
2022-10-08T19:10:15.296Z,13.10
2022-10-08T19:14:19.679Z,13.00
2022-10-08T19:19:08.937Z,13.00
2022-10-08T19:29:50.503Z,12.80
2022-10-08T19:39:43.882Z,12.60
2022-10-08T19:44:18.959Z,12.60
2022-10-08T19:49:50.126Z,12.50
2022-10-08T19:53:31.776Z,12.40
2022-10-08T19:57:38.215Z,12.40
2022-10-08T20:01:42.838Z,12.30
2022-10-08T20:05:48.167Z,12.20
2022-10-08T20:09:53.873Z,12.20
2022-10-08T20:13:56.941Z,12.10
2022-10-08T20:18:00.207Z,12.10
2022-10-08T20:22:09.646Z,12.00
2022-10-08T20:26:22.467Z,12.00
2022-10-08T20:30:24.758Z,11.90
2022-10-08T20:34:28.930Z,11.80
2022-10-08T20:38:33.742Z,11.80
2022-10-08T20:42:39.000Z,11.70
2022-10-08T20:46:43.493Z,11.60
2022-10-08T20:50:51.811Z,11.60
2022-10-08T20:55:00.479Z,11.50
2022-10-08T20:59:05.441Z,11.50
2022-10-08T21:03:08.014Z,11.50
2022-10-08T21:07:30.318Z,11.40
2022-10-08T21:11:33.768Z,11.40
2022-10-08T21:15:36.097Z,11.40
2022-10-08T21:19:42.338Z,11.40
2022-10-08T21:28:42.743Z,11.30
2022-10-08T21:32:58.921Z,11.20
2022-10-08T21:37:02.724Z,11.20
2022-10-08T21:41:12.957Z,11.20
2022-10-08T21:45:15.126Z,11.20
2022-10-08T21:49:20.509Z,11.10
2022-10-08T21:53:22.503Z,11.10
2022-10-08T21:57:24.613Z,11.10
2022-10-08T22:01:32.359Z,11.00
2022-10-08T22:05:39.005Z,11.00
2022-10-08T22:09:41.852Z,11.00
2022-10-08T22:13:43.737Z,10.90
2022-10-08T22:17:45.566Z,10.90
2022-10-08T22:21:48.228Z,10.90
2022-10-08T22:26:10.679Z,10.90
2022-10-08T22:30:12.727Z,10.90
2022-10-08T22:34:14.691Z,10.80
2022-10-08T22:38:16.595Z,10.80
2022-10-08T22:42:18.569Z,10.80
2022-10-08T22:46:23.127Z,10.70
2022-10-08T22:50:25.040Z,10.70
2022-10-08T22:54:26.920Z,10.70
2022-10-08T22:58:28.974Z,10.60
2022-10-08T23:02:31.413Z,10.60
2022-10-08T23:06:34.201Z,10.60
2022-10-08T23:10:38.999Z,10.60
2022-10-08T23:14:40.821Z,10.60
2022-10-08T23:18:44.773Z,10.50
2022-10-08T23:22:47.000Z,10.50
2022-10-08T23:26:49.736Z,10.50
2022-10-08T23:30:51.650Z,10.50
2022-10-08T23:34:53.441Z,10.50
2022-10-08T23:38:56.453Z,10.50
2022-10-08T23:42:58.273Z,10.40
2022-10-08T23:47:00.077Z,10.40
2022-10-08T23:51:02.290Z,10.40
2022-10-08T23:55:04.501Z,10.40
2022-10-08T23:59:06.401Z,10.30
